createdAt,value
2019-03-24T00:00:33.757Z,95.60
2019-03-24T00:03:04.115Z,95.70
2019-03-24T00:05:37.790Z,95.70
2019-03-24T00:08:07.296Z,95.90
2019-03-24T00:10:37.404Z,95.90
2019-03-24T00:13:07.813Z,95.70
2019-03-24T00:15:38.117Z,95.60
2019-03-24T00:18:14.820Z,95.60
2019-03-24T00:20:45.035Z,95.70
2019-03-24T00:23:15.335Z,95.70
2019-03-24T00:25:45.546Z,95.70
2019-03-24T00:28:15.848Z,96.00
2019-03-24T00:30:46.061Z,96.10
2019-03-24T00:33:16.369Z,96.00
2019-03-24T00:35:46.646Z,96.20
2019-03-24T00:38:16.898Z,96.20
2019-03-24T00:40:47.104Z,96.20
2019-03-24T00:43:17.421Z,96.40
2019-03-24T00:45:47.632Z,96.40
2019-03-24T00:48:17.860Z,96.70
2019-03-24T00:50:49.168Z,96.30
2019-03-24T00:53:19.495Z,96.40
2019-03-24T00:55:49.803Z,96.20
2019-03-24T00:58:20.012Z,96.00
2019-03-24T01:00:51.672Z,96.10
2019-03-24T01:03:21.978Z,95.80
2019-03-24T01:05:52.190Z,95.10
2019-03-24T01:08:22.489Z,94.60
2019-03-24T01:10:52.860Z,94.10
2019-03-24T01:13:23.085Z,93.50
2019-03-24T01:15:54.344Z,93.20
2019-03-24T01:18:25.691Z,93.20
2019-03-24T01:20:55.967Z,93.30
2019-03-24T01:23:26.268Z,93.30
2019-03-24T01:25:56.589Z,93.40
2019-03-24T01:28:26.899Z,93.40
2019-03-24T01:30:57.163Z,93.00
2019-03-24T01:33:27.475Z,92.50
2019-03-24T01:35:57.735Z,92.50
2019-03-24T01:38:28.102Z,92.50
2019-03-24T01:40:58.352Z,92.40
2019-03-24T01:43:28.671Z,92.40
2019-03-24T01:45:59.108Z,92.10
2019-03-24T01:48:29.726Z,92.40
2019-03-24T01:51:00.023Z,92.40
2019-03-24T01:53:30.387Z,92.40
2019-03-24T01:56:00.671Z,92.50
2019-03-24T01:58:30.969Z,92.50
2019-03-24T02:01:01.255Z,92.50
2019-03-24T02:03:31.578Z,92.60
2019-03-24T02:06:02.907Z,92.50
2019-03-24T02:08:33.144Z,92.50
2019-03-24T02:11:03.435Z,92.50
2019-03-24T02:13:33.754Z,92.80
2019-03-24T02:16:09.396Z,92.50
2019-03-24T02:18:36.964Z,92.60
2019-03-24T02:21:08.642Z,92.50
2019-03-24T02:23:38.930Z,92.50
2019-03-24T02:26:09.200Z,92.70
2019-03-24T02:28:39.508Z,92.80
2019-03-24T02:31:09.804Z,92.80
2019-03-24T02:33:40.095Z,92.90
2019-03-24T02:36:10.285Z,92.80
2019-03-24T02:38:40.603Z,92.90
2019-03-24T02:41:10.879Z,92.90
2019-03-24T02:43:41.271Z,92.90
2019-03-24T02:46:23.446Z,92.80
2019-03-24T02:48:43.652Z,93.30
2019-03-24T02:51:13.907Z,92.80
2019-03-24T02:53:44.213Z,92.80
2019-03-24T02:56:14.484Z,92.80
2019-03-24T02:58:44.789Z,92.90
2019-03-24T03:01:15.040Z,92.80
2019-03-24T03:03:45.339Z,92.80
2019-03-24T03:06:15.543Z,92.70
2019-03-24T03:08:45.805Z,92.80
2019-03-24T03:11:16.131Z,92.80
2019-03-24T03:13:46.383Z,92.80
2019-03-24T03:16:16.629Z,92.90
2019-03-24T03:18:46.928Z,93.00
2019-03-24T03:21:17.246Z,93.20
2019-03-24T03:23:47.518Z,93.30
2019-03-24T03:26:17.816Z,93.20
2019-03-24T03:28:48.114Z,93.20
2019-03-24T03:31:18.408Z,93.30
2019-03-24T03:33:48.608Z,93.30
2019-03-24T03:36:18.917Z,93.40
2019-03-24T03:38:49.209Z,93.40
2019-03-24T03:41:19.496Z,93.40
2019-03-24T03:43:49.808Z,93.60
2019-03-24T03:46:20.163Z,93.60
2019-03-24T03:48:50.398Z,93.70
2019-03-24T03:51:20.783Z,93.80
2019-03-24T03:53:51.026Z,93.70
2019-03-24T03:56:21.342Z,93.70
2019-03-24T03:58:51.652Z,93.70
2019-03-24T04:01:21.905Z,93.80
2019-03-24T04:03:52.206Z,93.70
2019-03-24T04:06:22.551Z,93.70
2019-03-24T04:08:52.813Z,93.70
2019-03-24T04:11:23.146Z,93.90
2019-03-24T04:13:53.409Z,94.00
2019-03-24T04:16:23.691Z,94.00
2019-03-24T04:18:53.893Z,93.90
2019-03-24T04:21:24.917Z,93.80
2019-03-24T04:23:55.132Z,93.90
2019-03-24T04:26:25.493Z,93.90
2019-03-24T04:28:55.712Z,94.00
2019-03-24T04:31:26.069Z,94.00
2019-03-24T04:33:56.351Z,93.90
2019-03-24T04:36:26.699Z,93.80
2019-03-24T04:38:57.021Z,93.70
2019-03-24T04:41:27.354Z,93.70
2019-03-24T04:43:57.583Z,93.50
2019-03-24T04:46:27.839Z,93.50
2019-03-24T04:49:00.804Z,93.50
2019-03-24T04:51:31.074Z,94.00
2019-03-24T04:54:01.375Z,93.50
2019-03-24T04:56:31.640Z,93.60
2019-03-24T04:59:01.992Z,93.50
2019-03-24T05:01:32.264Z,93.10
2019-03-24T05:04:02.577Z,93.20
2019-03-24T05:06:32.980Z,93.30
2019-03-24T05:09:03.788Z,93.30
2019-03-24T05:11:34.063Z,93.20
2019-03-24T05:14:04.376Z,93.10
2019-03-24T05:16:35.634Z,93.20
2019-03-24T05:19:05.949Z,93.30
2019-03-24T05:21:36.211Z,93.10
2019-03-24T05:24:06.499Z,93.20
2019-03-24T05:26:37.754Z,93.20
2019-03-24T05:29:08.140Z,93.30
2019-03-24T05:31:38.451Z,93.30
2019-03-24T05:34:08.726Z,93.40
2019-03-24T05:36:39.035Z,93.20
2019-03-24T05:39:09.451Z,92.70
2019-03-24T05:41:39.697Z,92.60
2019-03-24T05:44:09.947Z,92.20
2019-03-24T05:46:40.255Z,92.00
2019-03-24T05:49:10.557Z,92.00
2019-03-24T05:51:40.872Z,92.20
2019-03-24T05:54:11.127Z,92.40
2019-03-24T05:56:41.625Z,92.30
2019-03-24T05:59:11.992Z,92.10
2019-03-24T06:01:43.850Z,92.00
2019-03-24T06:04:14.213Z,91.80
2019-03-24T06:06:44.902Z,91.70
2019-03-24T06:09:15.379Z,91.80
2019-03-24T06:11:45.705Z,91.90
2019-03-24T06:14:16.074Z,91.90
2019-03-24T06:16:46.366Z,92.30
2019-03-24T06:19:17.992Z,92.00
2019-03-24T06:21:48.291Z,91.80
2019-03-24T06:24:18.562Z,91.60
2019-03-24T06:26:48.950Z,91.60
2019-03-24T06:29:19.562Z,91.60
2019-03-24T06:31:50.512Z,91.20
2019-03-24T06:34:20.672Z,91.60
2019-03-24T06:36:50.988Z,91.50
2019-03-24T06:39:22.516Z,91.80
2019-03-24T06:41:52.814Z,91.20
2019-03-24T06:44:23.077Z,91.20
2019-03-24T06:46:53.379Z,91.20
2019-03-24T06:49:23.676Z,91.30
2019-03-24T06:51:53.969Z,91.40
2019-03-24T06:54:24.258Z,91.30
2019-03-24T06:56:57.585Z,91.20
2019-03-24T06:59:27.837Z,91.10
2019-03-24T07:01:58.073Z,91.00
2019-03-24T07:04:28.251Z,90.50
2019-03-24T07:06:58.591Z,90.40
2019-03-24T07:09:28.985Z,90.10
2019-03-24T07:12:00.191Z,89.00
2019-03-24T07:14:30.667Z,87.10
2019-03-24T07:17:00.883Z,86.10
2019-03-24T07:19:31.157Z,85.30
2019-03-24T07:22:02.446Z,85.10
2019-03-24T07:24:32.722Z,85.00
2019-03-24T07:27:06.101Z,84.70
2019-03-24T07:29:36.537Z,83.50
2019-03-24T07:32:06.793Z,83.60
2019-03-24T07:34:37.194Z,84.10
2019-03-24T07:37:07.450Z,84.70
2019-03-24T07:39:38.700Z,83.70
2019-03-24T07:42:12.742Z,81.90
2019-03-24T07:44:42.956Z,80.40
2019-03-24T07:47:13.981Z,80.40
2019-03-24T07:49:44.273Z,80.40
2019-03-24T07:52:15.555Z,80.90
2019-03-24T07:54:45.839Z,81.00
2019-03-24T07:57:16.072Z,81.00
2019-03-24T07:59:46.339Z,81.00
2019-03-24T08:02:17.921Z,80.50
2019-03-24T08:04:48.255Z,80.20
2019-03-24T08:07:18.543Z,78.50
2019-03-24T08:09:48.748Z,78.20
2019-03-24T08:12:19.041Z,76.20
2019-03-24T08:14:49.343Z,75.80
2019-03-24T08:17:19.646Z,75.30
2019-03-24T08:19:49.919Z,74.70
2019-03-24T08:22:20.224Z,75.40
2019-03-24T08:24:50.486Z,75.40
2019-03-24T08:27:20.780Z,74.90
2019-03-24T08:29:51.139Z,75.10
2019-03-24T08:32:21.468Z,75.60
2019-03-24T08:34:51.742Z,73.90
2019-03-24T08:37:25.078Z,74.10
2019-03-24T08:39:55.270Z,74.50
2019-03-24T08:42:25.572Z,74.00
2019-03-24T08:44:55.848Z,73.60
2019-03-24T08:47:26.054Z,71.70
2019-03-24T08:49:56.256Z,72.00
2019-03-24T08:52:26.567Z,69.00
2019-03-24T08:54:56.834Z,68.20
2019-03-24T08:57:27.158Z,68.40
2019-03-24T08:59:57.430Z,69.30
2019-03-24T09:02:28.526Z,67.70
2019-03-24T09:04:58.888Z,68.30
2019-03-24T09:07:29.216Z,68.40
2019-03-24T09:09:59.554Z,68.00
2019-03-24T09:12:31.236Z,66.70
2019-03-24T09:15:08.455Z,65.30
2019-03-24T09:17:41.153Z,64.80
2019-03-24T09:20:11.523Z,63.80
2019-03-24T09:22:41.795Z,63.40
2019-03-24T09:25:12.248Z,63.20
2019-03-24T09:27:42.552Z,63.60
2019-03-24T09:30:18.475Z,63.50
2019-03-24T09:32:48.777Z,63.60
2019-03-24T09:35:19.772Z,63.00
2019-03-24T09:37:50.091Z,63.20
2019-03-24T09:40:28.942Z,63.80
2019-03-24T09:42:59.818Z,64.00
2019-03-24T09:45:31.311Z,63.10
2019-03-24T09:48:03.991Z,62.80
2019-03-24T09:50:34.315Z,63.80
2019-03-24T09:53:04.729Z,63.70
2019-03-24T09:55:34.987Z,62.80
2019-03-24T09:58:05.520Z,61.90
2019-03-24T10:00:35.798Z,60.90
2019-03-24T10:03:06.115Z,62.20
2019-03-24T10:05:36.317Z,64.40
2019-03-24T10:08:07.545Z,61.90
2019-03-24T10:10:47.293Z,60.70
2019-03-24T10:13:17.544Z,60.90
2019-03-24T10:15:48.221Z,62.20
2019-03-24T10:18:18.517Z,61.70
2019-03-24T10:20:48.883Z,61.80
2019-03-24T10:23:19.781Z,62.20
2019-03-24T10:25:50.041Z,62.20
2019-03-24T10:28:20.341Z,62.30
2019-03-24T10:30:50.701Z,62.60
2019-03-24T10:33:21.017Z,61.90
2019-03-24T10:35:51.291Z,62.60
2019-03-24T10:38:22.185Z,63.50
2019-03-24T10:40:52.494Z,62.30
2019-03-24T10:43:22.799Z,61.70
2019-03-24T10:45:53.059Z,62.30
2019-03-24T10:48:33.164Z,62.90
2019-03-24T10:50:55.265Z,62.40
2019-03-24T10:53:25.568Z,62.80
2019-03-24T10:55:55.849Z,61.90
2019-03-24T10:58:26.202Z,60.90
2019-03-24T11:00:56.355Z,61.00
2019-03-24T11:03:27.151Z,60.40
2019-03-24T11:05:57.299Z,60.30
2019-03-24T11:08:27.651Z,59.80
2019-03-24T11:10:57.920Z,58.70
2019-03-24T11:13:28.274Z,57.70
2019-03-24T11:15:59.651Z,57.10
2019-03-24T11:18:30.278Z,56.80
2019-03-24T11:21:00.533Z,56.60
2019-03-24T11:23:31.487Z,55.80
2019-03-24T11:26:02.681Z,55.90
2019-03-24T11:28:33.023Z,55.80
2019-03-24T11:31:03.290Z,54.60
2019-03-24T11:33:33.558Z,54.00
2019-03-24T11:36:03.910Z,53.40
2019-03-24T11:38:34.247Z,54.00
2019-03-24T11:41:04.501Z,53.00
2019-03-24T11:43:35.140Z,52.60
2019-03-24T11:46:05.600Z,53.00
2019-03-24T11:48:35.883Z,53.10
2019-03-24T11:51:06.727Z,53.80
2019-03-24T11:53:37.079Z,53.40
2019-03-24T11:56:07.363Z,53.10
2019-03-24T11:58:37.765Z,54.30
2019-03-24T12:01:08.007Z,52.90
2019-03-24T12:03:38.342Z,54.30
2019-03-24T12:06:14.360Z,54.60
2019-03-24T12:08:41.081Z,54.00
2019-03-24T12:11:11.365Z,53.40
2019-03-24T12:13:41.709Z,53.00
2019-03-24T12:16:11.972Z,53.40
2019-03-24T12:18:43.301Z,52.60
2019-03-24T12:21:13.627Z,52.80
2019-03-24T12:23:43.877Z,51.60
2019-03-24T12:26:14.168Z,51.50
2019-03-24T12:28:44.435Z,52.10
2019-03-24T12:31:14.751Z,52.30
2019-03-24T12:33:45.019Z,53.20
2019-03-24T12:36:15.321Z,53.40
2019-03-24T12:38:45.533Z,51.90
2019-03-24T12:41:15.755Z,52.50
2019-03-24T12:43:46.883Z,52.80
2019-03-24T12:46:17.305Z,52.50
2019-03-24T12:48:47.574Z,52.30
2019-03-24T12:51:17.939Z,53.00
2019-03-24T12:53:48.127Z,53.00
2019-03-24T12:56:18.627Z,52.50
2019-03-24T12:58:48.935Z,51.80
2019-03-24T13:01:19.223Z,52.30
2019-03-24T13:03:49.494Z,52.20
2019-03-24T13:06:19.779Z,52.50
2019-03-24T13:08:49.982Z,52.50
2019-03-24T13:11:20.284Z,52.90
2019-03-24T13:13:50.479Z,51.30
2019-03-24T13:16:20.771Z,50.60
2019-03-24T13:18:51.483Z,51.10
2019-03-24T13:21:21.685Z,51.30
2019-03-24T13:23:51.946Z,52.40
2019-03-24T13:26:22.250Z,52.60
2019-03-24T13:28:52.435Z,53.30
2019-03-24T13:31:22.782Z,53.70
2019-03-24T13:33:52.982Z,54.50
2019-03-24T13:36:23.318Z,55.10
2019-03-24T13:38:53.516Z,55.80
2019-03-24T13:41:24.960Z,55.90
2019-03-24T13:43:56.006Z,55.90
2019-03-24T13:46:26.202Z,55.60
2019-03-24T13:48:56.443Z,56.40
2019-03-24T13:51:29.597Z,56.90
2019-03-24T13:53:59.909Z,58.00
2019-03-24T13:56:30.180Z,56.80
2019-03-24T13:59:00.487Z,56.80
2019-03-24T14:01:30.739Z,56.70
2019-03-24T14:04:00.975Z,57.20
2019-03-24T14:06:32.237Z,57.30
2019-03-24T14:09:02.526Z,57.00
2019-03-24T14:11:34.373Z,57.40
2019-03-24T14:14:05.039Z,55.60
2019-03-24T14:16:35.275Z,55.10
2019-03-24T14:19:05.601Z,54.80
2019-03-24T14:21:35.857Z,55.00
2019-03-24T14:24:06.187Z,55.50
2019-03-24T14:26:37.541Z,56.30
2019-03-24T14:29:07.727Z,56.50
2019-03-24T14:31:38.010Z,56.40
2019-03-24T14:34:08.375Z,56.70
2019-03-24T14:36:38.645Z,55.40
2019-03-24T14:39:08.952Z,55.80
2019-03-24T14:41:39.203Z,56.00
2019-03-24T14:44:09.434Z,56.50
2019-03-24T14:46:39.687Z,56.50
2019-03-24T14:49:09.980Z,56.80
2019-03-24T14:51:41.551Z,56.70
2019-03-24T14:54:11.904Z,57.30
2019-03-24T14:56:42.088Z,57.40
2019-03-24T14:59:12.396Z,58.30
2019-03-24T15:01:42.672Z,58.40
2019-03-24T15:04:12.920Z,58.50
2019-03-24T15:06:44.138Z,58.80
2019-03-24T15:09:14.437Z,58.90
2019-03-24T15:11:44.645Z,59.80
2019-03-24T15:14:14.863Z,59.70
2019-03-24T15:16:45.142Z,59.90
2019-03-24T15:19:15.380Z,60.50
2019-03-24T15:21:45.676Z,61.30
2019-03-24T15:24:15.930Z,61.60
2019-03-24T15:26:46.272Z,61.50
2019-03-24T15:29:17.416Z,62.10
2019-03-24T15:31:47.702Z,63.20
2019-03-24T15:34:17.895Z,64.40
2019-03-24T15:36:48.346Z,65.80
2019-03-24T15:39:18.600Z,66.40
2019-03-24T15:41:48.942Z,66.80
2019-03-24T15:44:19.850Z,67.20
2019-03-24T15:46:51.206Z,67.60
2019-03-24T15:49:21.510Z,67.50
2019-03-24T15:51:51.713Z,68.20
2019-03-24T15:54:22.011Z,68.60
2019-03-24T15:56:52.776Z,69.40
2019-03-24T15:59:23.017Z,70.10
2019-03-24T16:01:53.319Z,70.60
2019-03-24T16:04:23.600Z,71.20
2019-03-24T16:06:54.253Z,71.30
2019-03-24T16:09:24.542Z,71.60
2019-03-24T16:11:55.354Z,72.00
2019-03-24T16:14:25.606Z,72.90
2019-03-24T16:16:55.880Z,73.00
2019-03-24T16:19:30.787Z,73.40
2019-03-24T16:22:01.062Z,74.00
2019-03-24T16:24:31.380Z,73.80
2019-03-24T16:27:03.509Z,73.30
2019-03-24T16:29:34.223Z,74.10
2019-03-24T16:32:04.360Z,73.20
2019-03-24T16:34:34.659Z,73.50
2019-03-24T16:37:04.934Z,74.20
2019-03-24T16:39:35.252Z,74.50
2019-03-24T16:42:05.552Z,74.70
2019-03-24T16:44:35.784Z,74.60
2019-03-24T16:47:06.138Z,74.90
2019-03-24T16:49:36.446Z,75.40
2019-03-24T16:52:06.700Z,75.60
2019-03-24T16:54:37.038Z,75.70
2019-03-24T16:57:07.330Z,75.50
2019-03-24T16:59:37.627Z,75.80
2019-03-24T17:02:07.910Z,76.20
2019-03-24T17:04:38.344Z,75.10
2019-03-24T17:07:08.620Z,75.60
2019-03-24T17:09:38.986Z,76.20
2019-03-24T17:12:09.253Z,76.40
2019-03-24T17:14:40.892Z,76.70
2019-03-24T17:17:11.541Z,77.00
2019-03-24T17:19:42.016Z,76.80
2019-03-24T17:22:12.280Z,76.50
2019-03-24T17:24:42.683Z,76.20
2019-03-24T17:27:12.960Z,76.40
2019-03-24T17:29:43.337Z,76.60
2019-03-24T17:32:13.607Z,76.80
2019-03-24T17:34:43.981Z,76.90
2019-03-24T17:37:14.175Z,77.30
2019-03-24T17:39:44.532Z,77.40
2019-03-24T17:42:14.717Z,77.50
2019-03-24T17:44:45.018Z,78.00
2019-03-24T17:47:15.311Z,78.70
2019-03-24T17:49:46.349Z,78.80
2019-03-24T17:52:16.614Z,79.00
2019-03-24T17:54:48.065Z,79.10
2019-03-24T17:57:18.339Z,79.30
2019-03-24T17:59:48.737Z,79.40
2019-03-24T18:02:19.851Z,79.70
2019-03-24T18:04:50.459Z,79.40
2019-03-24T18:07:20.739Z,79.60
2019-03-24T18:09:51.083Z,79.60
2019-03-24T18:12:21.359Z,79.70
2019-03-24T18:15:00.601Z,80.10
2019-03-24T18:17:30.885Z,79.90
2019-03-24T18:20:01.316Z,79.90
2019-03-24T18:22:31.597Z,79.80
2019-03-24T18:25:01.945Z,80.10
2019-03-24T18:27:33.429Z,80.20
2019-03-24T18:30:04.787Z,80.70
2019-03-24T18:32:35.070Z,81.10
2019-03-24T18:35:08.214Z,81.40
2019-03-24T18:37:38.471Z,82.30
2019-03-24T18:40:10.210Z,81.90
2019-03-24T18:42:40.480Z,82.20
2019-03-24T18:45:12.053Z,82.40
2019-03-24T18:47:42.328Z,82.70
2019-03-24T18:50:12.912Z,83.20
2019-03-24T18:52:43.175Z,83.40
2019-03-24T18:55:13.848Z,83.40
2019-03-24T18:57:44.133Z,83.90
2019-03-24T19:00:15.683Z,83.90
2019-03-24T19:02:45.944Z,83.90
2019-03-24T19:05:17.181Z,83.70
2019-03-24T19:07:47.480Z,83.80
2019-03-24T19:10:17.920Z,84.10
2019-03-24T19:12:48.198Z,84.40
2019-03-24T19:15:25.280Z,84.50
2019-03-24T19:17:55.572Z,84.70
2019-03-24T19:20:25.953Z,84.80
2019-03-24T19:22:56.208Z,85.00
2019-03-24T19:25:26.572Z,85.00
2019-03-24T19:27:56.844Z,85.10
2019-03-24T19:30:36.139Z,85.30
2019-03-24T19:33:06.505Z,85.50
2019-03-24T19:35:36.849Z,85.60
2019-03-24T19:38:08.235Z,85.90
2019-03-24T19:40:38.476Z,86.00
2019-03-24T19:43:08.779Z,86.10
2019-03-24T19:45:39.109Z,86.10
2019-03-24T19:48:09.390Z,86.70
2019-03-24T19:50:39.764Z,86.10
2019-03-24T19:53:10.029Z,86.30
2019-03-24T19:55:40.379Z,86.40
2019-03-24T19:58:10.628Z,86.50
2019-03-24T20:00:41.108Z,86.80
2019-03-24T20:03:13.236Z,86.90
2019-03-24T20:05:43.568Z,86.90
2019-03-24T20:08:13.842Z,87.20
2019-03-24T20:10:44.214Z,87.30
2019-03-24T20:13:14.473Z,87.60
2019-03-24T20:15:44.767Z,86.60
2019-03-24T20:18:16.186Z,87.20
2019-03-24T20:20:46.544Z,87.50
2019-03-24T20:23:18.358Z,87.30
2019-03-24T20:25:49.471Z,87.50
2019-03-24T20:28:19.772Z,87.60
2019-03-24T20:30:50.127Z,87.30
2019-03-24T20:33:20.454Z,87.30
2019-03-24T20:35:50.794Z,87.40
2019-03-24T20:38:21.778Z,87.50
2019-03-24T20:40:52.337Z,87.60
2019-03-24T20:43:24.208Z,87.50
2019-03-24T20:45:54.490Z,87.80
2019-03-24T20:48:24.757Z,87.80
2019-03-24T20:50:54.957Z,88.00
2019-03-24T20:53:26.275Z,88.30
2019-03-24T20:55:57.315Z,88.30
2019-03-24T20:58:27.658Z,88.40
2019-03-24T21:00:57.929Z,88.60
2019-03-24T21:03:28.262Z,88.60
2019-03-24T21:05:58.753Z,88.80
2019-03-24T21:08:29.023Z,89.00
2019-03-24T21:10:59.295Z,89.20
2019-03-24T21:13:29.599Z,89.10
2019-03-24T21:15:59.864Z,89.40
2019-03-24T21:18:30.174Z,89.50
2019-03-24T21:21:00.424Z,89.60
2019-03-24T21:23:30.735Z,89.60
2019-03-24T21:26:01.007Z,89.50
2019-03-24T21:28:31.319Z,89.50
2019-03-24T21:31:01.495Z,89.60
2019-03-24T21:33:31.975Z,90.00
2019-03-24T21:36:02.235Z,90.10
2019-03-24T21:38:32.604Z,90.20
2019-03-24T21:41:02.872Z,90.40
2019-03-24T21:43:33.180Z,90.50
2019-03-24T21:46:03.446Z,90.60
2019-03-24T21:48:33.761Z,90.70
2019-03-24T21:51:03.948Z,90.80
2019-03-24T21:53:40.746Z,91.30
2019-03-24T21:56:06.199Z,90.90
2019-03-24T21:58:36.560Z,91.00
2019-03-24T22:01:06.829Z,91.20
2019-03-24T22:03:37.203Z,91.00
2019-03-24T22:06:07.374Z,90.90
2019-03-24T22:08:37.724Z,90.90
2019-03-24T22:11:07.988Z,90.70
2019-03-24T22:13:38.330Z,90.50
2019-03-24T22:16:10.311Z,90.20
2019-03-24T22:18:40.628Z,90.10
2019-03-24T22:21:10.889Z,89.70
2019-03-24T22:23:51.838Z,89.70
2019-03-24T22:26:13.633Z,89.50
2019-03-24T22:28:43.912Z,88.90
2019-03-24T22:31:14.103Z,88.80
2019-03-24T22:33:44.332Z,89.00
2019-03-24T22:36:14.521Z,88.80
2019-03-24T22:38:49.641Z,88.60
2019-03-24T22:41:19.880Z,88.60
2019-03-24T22:43:50.543Z,88.80
2019-03-24T22:46:20.808Z,89.00
2019-03-24T22:48:51.097Z,89.10
2019-03-24T22:51:21.372Z,89.40
2019-03-24T22:54:02.797Z,89.80
2019-03-24T22:56:23.950Z,89.80
2019-03-24T22:58:54.136Z,89.80
2019-03-24T23:01:24.496Z,89.80
2019-03-24T23:04:08.776Z,90.00
2019-03-24T23:06:39.089Z,90.10
2019-03-24T23:09:09.491Z,90.00
2019-03-24T23:11:39.704Z,90.10
2019-03-24T23:14:10.012Z,90.00
2019-03-24T23:16:42.302Z,90.10
2019-03-24T23:19:12.673Z,90.00
2019-03-24T23:21:42.934Z,90.00
2019-03-24T23:24:15.832Z,90.00
2019-03-24T23:26:45.171Z,90.00
2019-03-24T23:29:16.021Z,90.00
2019-03-24T23:31:47.743Z,90.20
2019-03-24T23:34:18.477Z,90.10
2019-03-24T23:36:48.599Z,90.00
2019-03-24T23:39:19.971Z,90.10
2019-03-24T23:41:50.164Z,90.10
2019-03-24T23:44:21.494Z,90.10
2019-03-24T23:46:53.592Z,90.10
2019-03-24T23:49:23.944Z,90.50
2019-03-24T23:51:54.132Z,90.30
2019-03-24T23:54:27.260Z,90.40
2019-03-24T23:56:56.286Z,90.40
2019-03-24T23:59:26.628Z,90.50
